createdAt,value
2018-02-16T00:01:10.473Z,91.84
2018-02-16T00:03:38.853Z,92.01
2018-02-16T00:06:07.232Z,92.27
2018-02-16T00:08:35.612Z,92.27
2018-02-16T00:11:04.112Z,92.11
2018-02-16T00:13:32.588Z,92.43
2018-02-16T00:16:01.839Z,92.00
2018-02-16T00:18:30.242Z,92.15
2018-02-16T00:20:59.408Z,92.12
2018-02-16T00:23:27.808Z,92.29
2018-02-16T00:25:56.211Z,92.05
2018-02-16T00:28:24.714Z,92.12
2018-02-16T00:30:53.117Z,92.13
2018-02-16T00:33:21.507Z,92.06
2018-02-16T00:35:49.951Z,91.81
2018-02-16T00:38:18.349Z,92.00
2018-02-16T00:40:46.741Z,91.75
2018-02-16T00:43:15.224Z,92.27
2018-02-16T00:45:43.683Z,92.07
2018-02-16T00:48:12.099Z,92.17
2018-02-16T00:50:40.471Z,92.06
2018-02-16T00:53:08.894Z,92.01
2018-02-16T00:55:38.062Z,92.11
2018-02-16T00:58:06.475Z,92.27
2018-02-16T01:00:35.753Z,92.22
2018-02-16T01:03:04.152Z,92.33
2018-02-16T01:05:33.387Z,92.36
2018-02-16T01:08:02.074Z,92.32
2018-02-16T01:10:30.482Z,92.12
2018-02-16T01:12:59.099Z,92.17
2018-02-16T01:15:27.519Z,91.97
2018-02-16T01:17:55.968Z,92.00
2018-02-16T01:20:25.172Z,92.00
2018-02-16T01:22:54.469Z,92.11
2018-02-16T01:25:23.647Z,91.94
2018-02-16T01:27:52.035Z,91.98
2018-02-16T01:30:20.738Z,91.99
2018-02-16T01:32:49.902Z,92.48
2018-02-16T01:35:18.301Z,92.55
2018-02-16T01:37:46.704Z,92.70
2018-02-16T01:40:15.846Z,92.64
2018-02-16T01:42:44.383Z,92.66
2018-02-16T01:45:13.560Z,92.83
2018-02-16T01:47:41.964Z,92.89
2018-02-16T01:50:11.139Z,92.81
2018-02-16T01:52:39.570Z,92.88
2018-02-16T01:55:07.954Z,92.99
2018-02-16T01:57:36.542Z,92.94
2018-02-16T02:00:04.918Z,92.82
2018-02-16T02:02:33.430Z,92.67
2018-02-16T02:05:01.813Z,92.58
2018-02-16T02:07:30.201Z,92.46
2018-02-16T02:09:58.568Z,92.44
2018-02-16T02:12:27.000Z,92.49
2018-02-16T02:14:55.433Z,92.54
2018-02-16T02:17:23.807Z,92.66
2018-02-16T02:19:52.198Z,92.53
2018-02-16T02:22:20.573Z,92.65
2018-02-16T02:24:49.004Z,92.85
2018-02-16T02:27:17.374Z,92.67
2018-02-16T02:29:46.530Z,92.48
2018-02-16T02:32:14.923Z,92.66
2018-02-16T02:34:43.304Z,92.46
2018-02-16T02:37:11.691Z,92.42
2018-02-16T02:39:40.853Z,92.52
2018-02-16T02:42:09.254Z,92.57
2018-02-16T02:44:37.760Z,92.76
2018-02-16T02:47:06.928Z,92.54
2018-02-16T02:49:35.322Z,92.51
2018-02-16T02:52:03.896Z,92.61
2018-02-16T02:54:32.274Z,92.14
2018-02-16T02:57:00.651Z,92.22
2018-02-16T02:59:29.060Z,92.34
2018-02-16T03:01:57.440Z,92.42
2018-02-16T03:04:26.632Z,92.33
2018-02-16T03:06:55.015Z,92.44
2018-02-16T03:09:23.664Z,92.56
2018-02-16T03:11:52.049Z,92.65
2018-02-16T03:14:20.422Z,92.72
2018-02-16T03:16:48.846Z,92.70
2018-02-16T03:19:17.242Z,92.34
2018-02-16T03:21:46.395Z,92.36
2018-02-16T03:24:14.785Z,91.42
2018-02-16T03:26:43.195Z,91.51
2018-02-16T03:29:12.396Z,91.90
2018-02-16T03:31:41.567Z,92.12
2018-02-16T03:34:10.117Z,92.23
2018-02-16T03:36:38.505Z,92.16
2018-02-16T03:39:06.923Z,92.14
2018-02-16T03:41:35.311Z,92.18
2018-02-16T03:44:04.479Z,91.97
2018-02-16T03:46:32.884Z,91.97
2018-02-16T03:49:02.066Z,92.21
2018-02-16T03:51:30.486Z,92.13
2018-02-16T03:53:59.651Z,92.28
2018-02-16T03:56:28.830Z,92.71
2018-02-16T03:58:57.335Z,92.75
2018-02-16T04:01:26.531Z,92.72
2018-02-16T04:03:54.908Z,92.78
2018-02-16T04:06:23.302Z,92.71
2018-02-16T04:08:51.707Z,92.64
2018-02-16T04:11:20.862Z,92.57
2018-02-16T04:13:49.262Z,92.43
2018-02-16T04:16:17.872Z,92.38
2018-02-16T04:18:47.055Z,92.39
2018-02-16T04:21:15.465Z,92.24
2018-02-16T04:23:43.866Z,92.23
2018-02-16T04:26:12.296Z,91.96
2018-02-16T04:28:40.730Z,91.73
2018-02-16T04:31:09.107Z,91.93
2018-02-16T04:33:37.523Z,92.19
2018-02-16T04:36:06.692Z,92.02
2018-02-16T04:38:35.116Z,92.17
2018-02-16T04:41:04.270Z,91.98
2018-02-16T04:43:32.651Z,91.70
2018-02-16T04:46:01.046Z,91.88
2018-02-16T04:48:30.216Z,92.03
2018-02-16T04:50:58.652Z,92.14
2018-02-16T04:53:27.034Z,92.24
2018-02-16T04:55:55.423Z,92.27
2018-02-16T04:58:24.073Z,92.39
2018-02-16T05:00:52.528Z,92.26
2018-02-16T05:03:20.890Z,92.25
2018-02-16T05:05:49.324Z,92.28
2018-02-16T05:08:17.925Z,92.24
2018-02-16T05:10:47.078Z,92.28
2018-02-16T05:13:15.478Z,92.33
2018-02-16T05:15:43.903Z,92.20
2018-02-16T05:18:13.071Z,92.23
2018-02-16T05:20:42.223Z,92.07
2018-02-16T05:23:10.601Z,92.22
2018-02-16T05:25:39.018Z,92.45
2018-02-16T05:28:07.646Z,92.34
2018-02-16T05:30:36.044Z,92.26
2018-02-16T05:33:04.426Z,92.46
2018-02-16T05:35:32.846Z,92.49
2018-02-16T05:38:01.231Z,92.62
2018-02-16T05:40:29.624Z,92.48
2018-02-16T05:42:58.809Z,92.50
2018-02-16T05:45:27.274Z,92.43
2018-02-16T05:47:55.685Z,92.43
2018-02-16T05:50:24.999Z,92.22
2018-02-16T05:52:53.384Z,92.26
2018-02-16T05:55:21.794Z,92.40
2018-02-16T05:57:50.275Z,92.51
2018-02-16T06:00:18.718Z,92.66
2018-02-16T06:02:48.035Z,92.52
2018-02-16T06:05:16.436Z,92.35
2018-02-16T06:07:44.850Z,92.33
2018-02-16T06:10:13.271Z,92.37
2018-02-16T06:12:41.770Z,92.30
2018-02-16T06:15:10.164Z,92.38
2018-02-16T06:17:38.625Z,92.43
2018-02-16T06:20:07.154Z,92.44
2018-02-16T06:22:35.752Z,92.47
2018-02-16T06:25:04.124Z,92.27
2018-02-16T06:27:32.763Z,92.58
2018-02-16T06:30:01.181Z,92.46
2018-02-16T06:32:29.565Z,92.53
2018-02-16T06:34:57.948Z,92.55
2018-02-16T06:37:27.101Z,92.56
2018-02-16T06:39:55.490Z,92.55
2018-02-16T06:42:23.967Z,92.62
2018-02-16T06:44:52.358Z,92.62
2018-02-16T06:47:20.750Z,92.66
2018-02-16T06:49:49.162Z,92.46
2018-02-16T06:52:17.690Z,92.66
2018-02-16T06:54:46.144Z,92.65
2018-02-16T06:57:15.322Z,93.21
2018-02-16T06:59:43.710Z,93.18
2018-02-16T07:02:12.886Z,92.97
2018-02-16T07:04:41.481Z,92.79
2018-02-16T07:07:10.013Z,92.72
2018-02-16T07:09:38.419Z,92.80
2018-02-16T07:12:06.872Z,92.94
2018-02-16T07:14:35.260Z,92.81
2018-02-16T07:17:03.816Z,92.57
2018-02-16T07:19:33.006Z,92.40
2018-02-16T07:22:02.189Z,92.24
2018-02-16T07:24:30.617Z,92.22
2018-02-16T07:26:59.016Z,92.05
2018-02-16T07:29:27.456Z,92.16
2018-02-16T07:31:56.696Z,92.16
2018-02-16T07:34:25.099Z,92.16
2018-02-16T07:36:53.478Z,92.14
2018-02-16T07:39:21.862Z,92.02
2018-02-16T07:41:50.277Z,91.65
2018-02-16T07:44:19.473Z,92.03
2018-02-16T07:46:48.620Z,91.66
2018-02-16T07:49:17.029Z,91.87
2018-02-16T07:51:45.428Z,92.05
2018-02-16T07:54:14.616Z,92.17
2018-02-16T07:56:43.000Z,92.23
2018-02-16T07:59:11.504Z,92.23
2018-02-16T08:01:39.882Z,92.15
2018-02-16T08:04:08.380Z,92.26
2018-02-16T08:06:36.795Z,92.19
2018-02-16T08:09:05.236Z,92.02
2018-02-16T08:11:33.704Z,92.03
2018-02-16T08:14:02.861Z,92.05
2018-02-16T08:16:31.279Z,92.13
2018-02-16T08:19:00.435Z,91.97
2018-02-16T08:21:28.862Z,92.14
2018-02-16T08:23:57.252Z,92.19
2018-02-16T08:26:25.779Z,92.37
2018-02-16T08:28:54.225Z,91.93
2018-02-16T08:31:22.633Z,91.76
2018-02-16T08:33:51.031Z,91.42
2018-02-16T08:36:19.414Z,91.15
2018-02-16T08:38:47.853Z,90.84
2018-02-16T08:41:16.511Z,90.93
2018-02-16T08:43:45.728Z,89.91
2018-02-16T08:46:14.100Z,88.84
2018-02-16T08:48:43.273Z,88.72
2018-02-16T08:51:11.651Z,88.58
2018-02-16T08:53:40.039Z,87.95
2018-02-16T08:56:08.438Z,87.79
2018-02-16T08:58:37.627Z,88.08
2018-02-16T09:01:06.842Z,87.22
2018-02-16T09:03:36.947Z,87.00
2018-02-16T09:06:06.133Z,88.96
2018-02-16T09:08:34.518Z,89.22
2018-02-16T09:11:02.913Z,87.53
2018-02-16T09:13:32.151Z,86.16
2018-02-16T09:16:00.556Z,87.27
2018-02-16T09:18:28.955Z,86.09
2018-02-16T09:20:57.368Z,82.90
2018-02-16T09:23:25.792Z,83.22
2018-02-16T09:25:54.248Z,84.27
2018-02-16T09:28:22.633Z,81.31
2018-02-16T09:30:51.086Z,82.46
2018-02-16T09:33:20.263Z,83.40
2018-02-16T09:35:50.097Z,81.27
2018-02-16T09:38:19.417Z,81.26
2018-02-16T09:40:47.801Z,81.53
2018-02-16T09:43:16.274Z,81.74
2018-02-16T09:45:44.664Z,82.03
2018-02-16T09:48:13.053Z,82.57
2018-02-16T09:50:41.498Z,81.60
2018-02-16T09:53:10.650Z,81.52
2018-02-16T09:55:39.036Z,81.06
2018-02-16T09:58:07.426Z,80.38
2018-02-16T10:00:35.965Z,79.75
2018-02-16T10:03:04.351Z,75.27
2018-02-16T10:05:32.758Z,71.74
2018-02-16T10:08:01.184Z,67.93
2018-02-16T10:10:29.575Z,68.33
2018-02-16T10:12:58.816Z,68.68
2018-02-16T10:15:27.358Z,67.30
2018-02-16T10:17:56.544Z,65.82
2018-02-16T10:20:24.947Z,63.48
2018-02-16T10:22:53.339Z,62.20
2018-02-16T10:25:21.778Z,61.31
2018-02-16T10:27:50.194Z,58.49
2018-02-16T10:30:19.415Z,60.70
2018-02-16T10:32:47.809Z,62.80
2018-02-16T10:35:16.240Z,61.22
2018-02-16T10:37:45.398Z,61.82
2018-02-16T10:40:13.794Z,59.90
2018-02-16T10:42:42.190Z,62.28
2018-02-16T10:45:11.363Z,59.50
2018-02-16T10:47:39.783Z,62.06
2018-02-16T10:50:08.937Z,61.07
2018-02-16T10:52:37.352Z,65.17
2018-02-16T10:55:05.743Z,63.95
2018-02-16T10:57:35.097Z,68.47
2018-02-16T11:00:03.805Z,66.35
2018-02-16T11:02:37.514Z,68.50
2018-02-16T11:05:11.419Z,70.22
2018-02-16T11:07:45.292Z,66.46
2018-02-16T11:10:14.437Z,65.74
2018-02-16T11:12:42.794Z,64.32
2018-02-16T11:15:11.175Z,65.34
2018-02-16T11:17:39.579Z,63.96
2018-02-16T11:20:07.980Z,58.67
2018-02-16T11:22:37.129Z,57.01
2018-02-16T11:25:05.570Z,56.48
2018-02-16T11:27:34.734Z,56.12
2018-02-16T11:30:03.130Z,57.04
2018-02-16T11:32:31.535Z,58.34
2018-02-16T11:35:00.709Z,58.46
2018-02-16T11:37:29.145Z,60.02
2018-02-16T11:39:57.527Z,60.24
2018-02-16T11:42:25.917Z,59.70
2018-02-16T11:44:54.463Z,60.93
2018-02-16T11:47:23.659Z,60.94
2018-02-16T11:49:52.080Z,58.56
2018-02-16T11:52:20.483Z,56.96
2018-02-16T11:54:48.897Z,57.56
2018-02-16T11:57:17.285Z,57.54
2018-02-16T11:59:47.059Z,58.50
2018-02-16T12:02:15.469Z,56.67
2018-02-16T12:04:44.158Z,54.87
2018-02-16T12:07:12.617Z,56.23
2018-02-16T12:09:41.020Z,55.80
2018-02-16T12:12:09.446Z,54.73
2018-02-16T12:14:37.819Z,54.35
2018-02-16T12:17:06.468Z,55.43
2018-02-16T12:19:34.852Z,56.23
2018-02-16T12:22:03.250Z,56.15
2018-02-16T12:24:31.912Z,57.01
2018-02-16T12:27:01.333Z,57.34
2018-02-16T12:29:29.896Z,57.26
2018-02-16T12:31:58.293Z,57.06
2018-02-16T12:34:27.460Z,56.68
2018-02-16T12:36:55.881Z,56.49
2018-02-16T12:39:25.034Z,57.58
2018-02-16T12:41:53.442Z,56.01
2018-02-16T12:44:22.064Z,54.38
2018-02-16T12:46:50.442Z,53.84
2018-02-16T12:49:19.698Z,53.18
2018-02-16T12:51:48.092Z,54.65
2018-02-16T12:54:17.268Z,53.78
2018-02-16T12:56:45.781Z,53.76
2018-02-16T12:59:14.427Z,52.69
2018-02-16T13:01:42.872Z,54.54
2018-02-16T13:04:11.349Z,55.19
2018-02-16T13:06:51.680Z,52.66
2018-02-16T13:09:21.208Z,53.03
2018-02-16T13:11:49.644Z,51.98
2018-02-16T13:14:18.045Z,50.63
2018-02-16T13:16:46.814Z,50.40
2018-02-16T13:19:15.334Z,50.62
2018-02-16T13:21:43.920Z,51.09
2018-02-16T13:24:12.377Z,51.88
2018-02-16T13:27:08.624Z,52.68
2018-02-16T13:29:37.335Z,51.67
2018-02-16T13:32:05.959Z,51.62
2018-02-16T13:34:34.562Z,51.73
2018-02-16T13:37:03.056Z,52.67
2018-02-16T13:39:31.488Z,50.86
2018-02-16T13:41:59.919Z,49.33
2018-02-16T13:44:28.401Z,50.22
2018-02-16T13:46:56.821Z,51.25
2018-02-16T13:49:25.235Z,49.72
2018-02-16T13:51:53.782Z,51.19
2018-02-16T13:54:22.269Z,51.75
2018-02-16T13:56:50.752Z,51.79
2018-02-16T13:59:19.125Z,50.33
2018-02-16T14:01:47.524Z,50.98
2018-02-16T14:04:15.931Z,49.28
2018-02-16T14:06:45.113Z,50.87
2018-02-16T14:09:14.272Z,50.52
2018-02-16T14:11:42.675Z,50.45
2018-02-16T14:14:11.087Z,48.80
2018-02-16T14:16:41.818Z,49.24
2018-02-16T14:19:11.007Z,49.78
2018-02-16T14:21:39.454Z,48.72
2018-02-16T14:24:07.974Z,50.76
2018-02-16T14:26:36.457Z,51.45
2018-02-16T14:29:04.893Z,50.08
2018-02-16T14:31:33.295Z,51.89
2018-02-16T14:34:01.755Z,51.75
2018-02-16T14:36:30.153Z,51.00
2018-02-16T14:38:58.603Z,51.76
2018-02-16T14:41:28.041Z,52.52
2018-02-16T14:43:56.451Z,49.89
2018-02-16T14:46:29.547Z,50.14
2018-02-16T14:49:10.038Z,49.35
2018-02-16T14:51:41.569Z,50.10
2018-02-16T14:54:14.104Z,49.96
2018-02-16T14:56:42.512Z,50.76
2018-02-16T14:59:11.540Z,51.89
2018-02-16T15:01:39.979Z,50.25
2018-02-16T15:04:08.414Z,51.99
2018-02-16T15:06:36.890Z,51.98
2018-02-16T15:09:06.136Z,52.29
2018-02-16T15:11:34.573Z,51.70
2018-02-16T15:14:02.997Z,50.65
2018-02-16T15:16:31.421Z,50.87
2018-02-16T15:19:00.583Z,50.69
2018-02-16T15:21:28.990Z,51.03
2018-02-16T15:23:58.242Z,51.17
2018-02-16T15:26:27.374Z,51.27
2018-02-16T15:28:57.477Z,52.58
2018-02-16T15:31:27.234Z,53.52
2018-02-16T15:33:56.604Z,54.27
2018-02-16T15:36:25.015Z,55.22
2018-02-16T15:38:54.200Z,54.78
2018-02-16T15:41:22.623Z,54.69
2018-02-16T15:43:51.025Z,53.85
2018-02-16T15:46:19.406Z,54.37
2018-02-16T15:48:48.720Z,54.28
2018-02-16T15:51:17.152Z,53.34
2018-02-16T15:53:45.556Z,53.20
2018-02-16T15:56:13.942Z,54.07
2018-02-16T15:58:42.388Z,53.74
2018-02-16T16:01:11.578Z,54.43
2018-02-16T16:03:40.757Z,54.43
2018-02-16T16:06:09.147Z,55.11
2018-02-16T16:08:38.434Z,55.19
2018-02-16T16:11:06.887Z,54.97
2018-02-16T16:13:35.358Z,55.41
2018-02-16T16:16:03.782Z,55.87
2018-02-16T16:18:32.226Z,56.35
2018-02-16T16:21:00.688Z,58.20
2018-02-16T16:23:29.114Z,58.07
2018-02-16T16:25:57.686Z,59.19
2018-02-16T16:28:26.064Z,59.34
2018-02-16T16:30:54.468Z,60.38
2018-02-16T16:33:22.913Z,61.26
2018-02-16T16:35:51.338Z,61.56
2018-02-16T16:38:19.921Z,62.26
2018-02-16T16:40:48.319Z,62.92
2018-02-16T16:43:18.048Z,63.73
2018-02-16T16:45:47.248Z,63.89
2018-02-16T16:48:17.999Z,64.78
2018-02-16T16:50:47.187Z,65.34
2018-02-16T16:53:17.757Z,67.19
2018-02-16T16:55:46.190Z,68.08
2018-02-16T16:58:16.005Z,69.80
2018-02-16T17:00:45.210Z,71.17
2018-02-16T17:03:16.053Z,71.66
2018-02-16T17:05:45.226Z,72.97
2018-02-16T17:08:15.234Z,74.07
2018-02-16T17:10:43.621Z,74.56
2018-02-16T17:13:13.518Z,74.83
2018-02-16T17:15:42.010Z,74.90
2018-02-16T17:18:11.765Z,75.83
2018-02-16T17:20:40.966Z,75.60
2018-02-16T17:23:11.747Z,74.18
2018-02-16T17:25:40.176Z,75.12
2018-02-16T17:28:09.669Z,74.89
2018-02-16T17:30:38.100Z,75.92
2018-02-16T17:33:07.802Z,76.25
2018-02-16T17:35:37.027Z,76.97
2018-02-16T17:38:05.430Z,77.08
2018-02-16T17:40:33.822Z,77.54
2018-02-16T17:43:02.258Z,77.83
2018-02-16T17:45:30.803Z,77.94
2018-02-16T17:47:59.255Z,78.53
2018-02-16T17:50:28.447Z,79.34
2018-02-16T17:52:57.063Z,80.23
2018-02-16T17:55:25.526Z,79.97
2018-02-16T17:57:53.911Z,81.24
2018-02-16T18:00:22.320Z,81.15
2018-02-16T18:02:50.766Z,82.02
2018-02-16T18:05:19.365Z,81.56
2018-02-16T18:07:47.761Z,82.80
2018-02-16T18:10:16.233Z,82.34
2018-02-16T18:12:44.672Z,82.49
2018-02-16T18:15:13.873Z,82.67
2018-02-16T18:17:42.359Z,83.01
2018-02-16T18:20:11.696Z,82.10
2018-02-16T18:22:40.963Z,81.91
2018-02-16T18:25:09.461Z,82.01
2018-02-16T18:27:37.844Z,82.61
2018-02-16T18:30:06.405Z,82.68
2018-02-16T18:32:35.600Z,82.65
2018-02-16T18:35:04.777Z,82.90
2018-02-16T18:37:33.193Z,83.62
2018-02-16T18:40:01.615Z,84.36
2018-02-16T18:42:30.027Z,83.83
2018-02-16T18:44:58.422Z,84.11
2018-02-16T18:47:26.912Z,84.55
2018-02-16T18:49:55.313Z,84.32
2018-02-16T18:52:23.875Z,84.26
2018-02-16T18:54:52.284Z,85.16
2018-02-16T18:57:20.719Z,85.02
2018-02-16T18:59:50.991Z,83.23
2018-02-16T19:02:19.393Z,83.19
2018-02-16T19:04:48.278Z,83.54
2018-02-16T19:07:16.865Z,83.31
2018-02-16T19:09:45.279Z,83.80
2018-02-16T19:12:13.907Z,84.56
2018-02-16T19:14:42.303Z,84.06
2018-02-16T19:17:10.733Z,84.28
2018-02-16T19:19:39.267Z,84.17
2018-02-16T19:22:07.723Z,84.32
2018-02-16T19:24:36.986Z,84.94
2018-02-16T19:27:05.411Z,85.73
2018-02-16T19:29:34.258Z,86.34
2018-02-16T19:32:03.520Z,85.44
2018-02-16T19:34:32.229Z,85.21
2018-02-16T19:37:00.685Z,85.58
2018-02-16T19:39:30.416Z,85.66
2018-02-16T19:42:01.872Z,85.94
2018-02-16T19:44:30.651Z,86.45
2018-02-16T19:46:59.741Z,86.18
2018-02-16T19:49:28.248Z,86.39
2018-02-16T19:51:57.174Z,86.52
2018-02-16T19:54:26.015Z,86.67
2018-02-16T19:56:54.715Z,87.12
2018-02-16T19:59:23.595Z,87.07
2018-02-16T20:01:52.075Z,86.83
2018-02-16T20:04:20.689Z,86.67
2018-02-16T20:06:49.434Z,86.94
2018-02-16T20:09:18.338Z,87.14
2018-02-16T20:11:47.337Z,87.25
2018-02-16T20:14:16.935Z,87.27
2018-02-16T20:16:45.555Z,87.95
2018-02-16T20:19:14.053Z,87.31
2018-02-16T20:21:43.206Z,87.25
2018-02-16T20:24:12.506Z,87.01
2018-02-16T20:26:41.294Z,86.96
2018-02-16T20:29:10.020Z,87.41
2018-02-16T20:31:39.591Z,87.77
2018-02-16T20:34:08.555Z,87.69
2018-02-16T20:36:37.015Z,87.77
2018-02-16T20:39:05.860Z,87.86
2018-02-16T20:41:35.515Z,88.00
2018-02-16T20:44:04.098Z,88.25
2018-02-16T20:46:33.282Z,88.30
2018-02-16T20:49:02.901Z,88.32
2018-02-16T20:51:31.429Z,88.25
2018-02-16T20:53:59.833Z,88.41
2018-02-16T20:56:28.284Z,88.11
2018-02-16T20:58:56.816Z,88.92
2018-02-16T21:01:25.321Z,88.78
2018-02-16T21:03:58.363Z,88.59
2018-02-16T21:06:38.373Z,88.61
2018-02-16T21:09:10.006Z,88.78
2018-02-16T21:11:38.557Z,88.83
2018-02-16T21:14:06.992Z,88.88
2018-02-16T21:16:35.424Z,88.88
2018-02-16T21:19:03.847Z,88.58
2018-02-16T21:21:35.999Z,88.04
2018-02-16T21:24:06.988Z,88.53
2018-02-16T21:26:35.537Z,88.05
2018-02-16T21:29:04.077Z,87.93
2018-02-16T21:31:32.519Z,88.25
2018-02-16T21:34:01.031Z,88.07
2018-02-16T21:36:29.470Z,88.11
2018-02-16T21:38:58.370Z,88.23
2018-02-16T21:41:27.717Z,87.63
2018-02-16T21:43:56.276Z,87.19
2018-02-16T21:46:26.306Z,87.32
2018-02-16T21:48:56.380Z,87.31
2018-02-16T21:51:25.060Z,87.95
2018-02-16T21:53:53.746Z,87.97
2018-02-16T21:56:24.845Z,87.80
2018-02-16T21:58:53.368Z,87.67
2018-02-16T22:01:23.425Z,87.53
2018-02-16T22:03:52.579Z,87.02
2018-02-16T22:06:21.984Z,86.72
2018-02-16T22:08:50.446Z,86.69
2018-02-16T22:11:19.000Z,86.56
2018-02-16T22:13:47.443Z,85.94
2018-02-16T22:16:16.057Z,85.63
2018-02-16T22:18:45.373Z,85.57
2018-02-16T22:21:13.853Z,85.23
2018-02-16T22:23:43.047Z,84.76
2018-02-16T22:26:12.216Z,84.28
2018-02-16T22:28:40.725Z,83.75
2018-02-16T22:31:09.387Z,83.22
2018-02-16T22:33:37.987Z,82.94
2018-02-16T22:36:07.670Z,82.47
2018-02-16T22:38:36.120Z,82.51
2018-02-16T22:41:04.503Z,82.52
2018-02-16T22:43:33.227Z,82.81
2018-02-16T22:46:02.899Z,83.27
2018-02-16T22:48:33.122Z,83.43
2018-02-16T22:51:02.668Z,83.69
2018-02-16T22:53:31.603Z,83.17
2018-02-16T22:56:00.814Z,83.25
2018-02-16T22:58:29.206Z,84.01
2018-02-16T23:00:57.600Z,83.94
2018-02-16T23:03:26.483Z,83.70
2018-02-16T23:05:54.887Z,83.79
2018-02-16T23:08:23.281Z,83.48
2018-02-16T23:10:52.447Z,83.78
2018-02-16T23:13:20.924Z,83.89
2018-02-16T23:15:49.326Z,84.39
2018-02-16T23:18:17.962Z,84.55
2018-02-16T23:20:47.191Z,84.89
2018-02-16T23:23:16.347Z,84.85
2018-02-16T23:25:45.558Z,85.19
2018-02-16T23:28:14.783Z,85.48
2018-02-16T23:30:43.564Z,85.80
2018-02-16T23:33:11.982Z,85.67
2018-02-16T23:35:40.627Z,85.55
2018-02-16T23:38:09.043Z,85.84
2018-02-16T23:40:37.480Z,86.17
2018-02-16T23:43:06.812Z,86.09
2018-02-16T23:45:36.069Z,86.31
2018-02-16T23:48:04.449Z,86.21
2018-02-16T23:50:32.869Z,86.31
2018-02-16T23:53:03.219Z,85.90
2018-02-16T23:55:34.452Z,86.22
2018-02-16T23:58:13.836Z,86.25
